KFAT/FAT METAR and TAF weather

Enter ICAO airport designator
Station Type Date Time Source
KFAT METAR 2018/12/12 07:53 UTC NOAA

KFAT 120753Z 00000KT 7SM CLR 06/04 A3022 RMK AO2 SLP232 T00560039 401220056


Station Type Date Time Source
KFAT Decoded METAR 2018/12/12 07:53 UTC NOAA

FRESNO AIR TERMINAL, CA, United States (KFAT) 36-47N 119-43W 104M
Dec 12, 2018 - 02:53 AM EST / 2018.12.12 0753 UTC
Wind: Calm:0
Visibility: 7 mile(s):0
Sky conditions: clear
Temperature: 42.1 F (5.6 C)
Dew Point: 39.0 F (3.9 C)
Relative Humidity: 88%
Pressure (altimeter): 30.22 in. Hg (1023 hPa)
ob: KFAT 120753Z 00000KT 7SM CLR 06/04 A3022 RMK AO2 SLP232 T00560039 401220056
cycle: 8

Station Type Date Time Source
KFAT TAF 2018/12/12 06:22 UTC NOAA

TAF KFAT 120520Z 1206/1306 VRB03KT 6SM BR BKN250
FM121200 VRB03KT 2SM BR BKN025
FM121900 VRB04KT P6SM SCT030
FM130000 31003KT 6SM HZ BKN250


Example: see airport list